sensor_id;sensor_type;location;lat;lon;timestamp;P1;durP1;ratioP1;P2;durP2;ratioP2
16737;SDS011;17906;47.684;10.806;2023-05-21T00:01:08;8.57;;;4.07;;
16737;SDS011;17906;47.684;10.806;2023-05-21T00:03:40;6.67;;;4.40;;
16737;SDS011;17906;47.684;10.806;2023-05-21T00:06:06;7.17;;;4.30;;
16737;SDS011;17906;47.684;10.806;2023-05-21T00:08:33;6.03;;;4.17;;
16737;SDS011;17906;47.684;10.806;2023-05-21T00:11:01;9.73;;;4.50;;
16737;SDS011;17906;47.684;10.806;2023-05-21T00:13:27;8.47;;;5.00;;
16737;SDS011;17906;47.684;10.806;2023-05-21T00:15:54;9.03;;;4.73;;
16737;SDS011;17906;47.684;10.806;2023-05-21T00:18:20;5.93;;;3.53;;
16737;SDS011;17906;47.684;10.806;2023-05-21T00:20:49;5.83;;;3.77;;
16737;SDS011;17906;47.684;10.806;2023-05-21T00:23:16;7.47;;;3.83;;
16737;SDS011;17906;47.684;10.806;2023-05-21T00:25:42;8.10;;;4.70;;
16737;SDS011;17906;47.684;10.806;2023-05-21T00:28:10;10.20;;;4.60;;
16737;SDS011;17906;47.684;10.806;2023-05-21T00:30:37;7.60;;;4.30;;
16737;SDS011;17906;47.684;10.806;2023-05-21T00:33:03;7.20;;;4.73;;
16737;SDS011;17906;47.684;10.806;2023-05-21T00:35:30;6.50;;;4.40;;
16737;SDS011;17906;47.684;10.806;2023-05-21T00:37:57;8.33;;;4.67;;
16737;SDS011;17906;47.684;10.806;2023-05-21T00:40:24;7.40;;;4.40;;
16737;SDS011;17906;47.684;10.806;2023-05-21T00:42:52;8.67;;;5.10;;
16737;SDS011;17906;47.684;10.806;2023-05-21T00:45:22;6.97;;;4.20;;
16737;SDS011;17906;47.684;10.806;2023-05-21T00:47:49;7.83;;;4.03;;
16737;SDS011;17906;47.684;10.806;2023-05-21T00:50:18;6.37;;;4.20;;
16737;SDS011;17906;47.684;10.806;2023-05-21T00:52:45;9.43;;;4.17;;
16737;SDS011;17906;47.684;10.806;2023-05-21T00:55:13;6.27;;;3.77;;
16737;SDS011;17906;47.684;10.806;2023-05-21T00:57:39;8.43;;;3.50;;
16737;SDS011;17906;47.684;10.806;2023-05-21T01:00:07;7.17;;;3.83;;
16737;SDS011;17906;47.684;10.806;2023-05-21T01:02:36;7.70;;;3.90;;
16737;SDS011;17906;47.684;10.806;2023-05-21T01:05:02;5.07;;;3.77;;
16737;SDS011;17906;47.684;10.806;2023-05-21T01:07:30;6.67;;;4.10;;
16737;SDS011;17906;47.684;10.806;2023-05-21T01:09:58;6.80;;;4.50;;
16737;SDS011;17906;47.684;10.806;2023-05-21T01:12:26;9.47;;;4.13;;
16737;SDS011;17906;47.684;10.806;2023-05-21T01:14:52;9.53;;;5.03;;
16737;SDS011;17906;47.684;10.806;2023-05-21T01:17:20;7.60;;;4.10;;
16737;SDS011;17906;47.684;10.806;2023-05-21T01:19:49;7.03;;;4.27;;
16737;SDS011;17906;47.684;10.806;2023-05-21T01:22:18;8.17;;;4.77;;
16737;SDS011;17906;47.684;10.806;2023-05-21T01:24:49;12.37;;;5.83;;
16737;SDS011;17906;47.684;10.806;2023-05-21T01:27:17;9.83;;;4.97;;
16737;SDS011;17906;47.684;10.806;2023-05-21T01:29:43;11.33;;;5.67;;
16737;SDS011;17906;47.684;10.806;2023-05-21T01:32:11;6.73;;;4.23;;
16737;SDS011;17906;47.684;10.806;2023-05-21T01:34:44;5.63;;;3.47;;
16737;SDS011;17906;47.684;10.806;2023-05-21T01:37:16;6.33;;;3.60;;
16737;SDS011;17906;47.684;10.806;2023-05-21T01:39:51;7.13;;;3.80;;
16737;SDS011;17906;47.684;10.806;2023-05-21T01:42:21;7.50;;;4.20;;
16737;SDS011;17906;47.684;10.806;2023-05-21T01:44:49;5.33;;;3.53;;
16737;SDS011;17906;47.684;10.806;2023-05-21T01:47:17;7.00;;;3.90;;
16737;SDS011;17906;47.684;10.806;2023-05-21T01:49:46;4.67;;;3.40;;
16737;SDS011;17906;47.684;10.806;2023-05-21T01:52:13;9.63;;;3.70;;
16737;SDS011;17906;47.684;10.806;2023-05-21T01:54:39;6.00;;;3.80;;
16737;SDS011;17906;47.684;10.806;2023-05-21T01:57:07;7.10;;;4.40;;
16737;SDS011;17906;47.684;10.806;2023-05-21T01:59:34;5.97;;;3.80;;
16737;SDS011;17906;47.684;10.806;2023-05-21T02:02:01;12.60;;;4.20;;
16737;SDS011;17906;47.684;10.806;2023-05-21T02:04:27;6.83;;;3.33;;
16737;SDS011;17906;47.684;10.806;2023-05-21T02:06:55;6.73;;;3.63;;
16737;SDS011;17906;47.684;10.806;2023-05-21T02:09:22;7.67;;;4.03;;
16737;SDS011;17906;47.684;10.806;2023-05-21T02:11:48;9.93;;;4.60;;
16737;SDS011;17906;47.684;10.806;2023-05-21T02:14:16;9.73;;;3.70;;
16737;SDS011;17906;47.684;10.806;2023-05-21T02:16:42;8.60;;;4.17;;
16737;SDS011;17906;47.684;10.806;2023-05-21T02:19:09;7.70;;;4.93;;
16737;SDS011;17906;47.684;10.806;2023-05-21T02:21:35;6.37;;;3.93;;
16737;SDS011;17906;47.684;10.806;2023-05-21T02:24:02;8.47;;;3.90;;
16737;SDS011;17906;47.684;10.806;2023-05-21T02:26:29;6.10;;;3.90;;
16737;SDS011;17906;47.684;10.806;2023-05-21T02:28:56;11.73;;;4.07;;
16737;SDS011;17906;47.684;10.806;2023-05-21T02:31:23;8.23;;;3.93;;
16737;SDS011;17906;47.684;10.806;2023-05-21T02:33:50;16.20;;;4.43;;
16737;SDS011;17906;47.684;10.806;2023-05-21T02:36:16;7.27;;;4.00;;
16737;SDS011;17906;47.684;10.806;2023-05-21T02:38:43;8.37;;;4.10;;
16737;SDS011;17906;47.684;10.806;2023-05-21T02:41:11;7.27;;;4.07;;
16737;SDS011;17906;47.684;10.806;2023-05-21T02:43:38;7.77;;;4.20;;
16737;SDS011;17906;47.684;10.806;2023-05-21T02:46:05;7.17;;;3.90;;
16737;SDS011;17906;47.684;10.806;2023-05-21T02:48:33;7.97;;;4.23;;
16737;SDS011;17906;47.684;10.806;2023-05-21T02:50:59;5.83;;;3.80;;
16737;SDS011;17906;47.684;10.806;2023-05-21T02:53:26;7.77;;;4.20;;
16737;SDS011;17906;47.684;10.806;2023-05-21T02:55:52;11.63;;;4.03;;
16737;SDS011;17906;47.684;10.806;2023-05-21T02:58:19;7.50;;;3.87;;
16737;SDS011;17906;47.684;10.806;2023-05-21T03:00:47;8.07;;;4.17;;
16737;SDS011;17906;47.684;10.806;2023-05-21T03:03:14;8.17;;;4.53;;
16737;SDS011;17906;47.684;10.806;2023-05-21T03:05:41;6.93;;;3.93;;
16737;SDS011;17906;47.684;10.806;2023-05-21T03:08:09;6.73;;;4.17;;
16737;SDS011;17906;47.684;10.806;2023-05-21T03:10:36;5.90;;;3.90;;
16737;SDS011;17906;47.684;10.806;2023-05-21T03:13:02;6.70;;;3.70;;
16737;SDS011;17906;47.684;10.806;2023-05-21T03:15:30;6.27;;;3.80;;
16737;SDS011;17906;47.684;10.806;2023-05-21T03:17:57;5.40;;;3.57;;
16737;SDS011;17906;47.684;10.806;2023-05-21T03:20:24;8.73;;;3.97;;
16737;SDS011;17906;47.684;10.806;2023-05-21T03:22:53;7.97;;;4.67;;
16737;SDS011;17906;47.684;10.806;2023-05-21T03:25:20;6.33;;;3.47;;
16737;SDS011;17906;47.684;10.806;2023-05-21T03:27:49;5.33;;;3.17;;
16737;SDS011;17906;47.684;10.806;2023-05-21T03:30:16;6.47;;;3.37;;
16737;SDS011;17906;47.684;10.806;2023-05-21T03:32:42;11.00;;;4.03;;
16737;SDS011;17906;47.684;10.806;2023-05-21T03:35:09;6.20;;;3.80;;
16737;SDS011;17906;47.684;10.806;2023-05-21T03:37:36;6.53;;;3.83;;
16737;SDS011;17906;47.684;10.806;2023-05-21T03:40:04;9.03;;;4.47;;
16737;SDS011;17906;47.684;10.806;2023-05-21T03:42:32;6.60;;;4.10;;
16737;SDS011;17906;47.684;10.806;2023-05-21T03:44:58;8.40;;;4.00;;
16737;SDS011;17906;47.684;10.806;2023-05-21T03:47:25;6.47;;;4.30;;
16737;SDS011;17906;47.684;10.806;2023-05-21T03:49:51;8.73;;;4.40;;
16737;SDS011;17906;47.684;10.806;2023-05-21T03:52:18;9.90;;;4.57;;
16737;SDS011;17906;47.684;10.806;2023-05-21T03:54:44;14.37;;;12.03;;
16737;SDS011;17906;47.684;10.806;2023-05-21T03:57:12;6.47;;;4.17;;
16737;SDS011;17906;47.684;10.806;2023-05-21T03:59:38;8.03;;;3.43;;
16737;SDS011;17906;47.684;10.806;2023-05-21T04:02:05;6.07;;;3.60;;
16737;SDS011;17906;47.684;10.806;2023-05-21T04:04:31;7.13;;;3.80;;
16737;SDS011;17906;47.684;10.806;2023-05-21T04:06:58;8.43;;;4.27;;
16737;SDS011;17906;47.684;10.806;2023-05-21T04:09:25;11.87;;;4.70;;
16737;SDS011;17906;47.684;10.806;2023-05-21T04:11:51;8.03;;;4.90;;
16737;SDS011;17906;47.684;10.806;2023-05-21T04:14:19;16.07;;;5.57;;
16737;SDS011;17906;47.684;10.806;2023-05-21T04:16:45;6.30;;;3.60;;
16737;SDS011;17906;47.684;10.806;2023-05-21T04:19:13;6.90;;;3.87;;
16737;SDS011;17906;47.684;10.806;2023-05-21T04:21:39;8.17;;;5.03;;
16737;SDS011;17906;47.684;10.806;2023-05-21T04:24:08;8.27;;;5.00;;
16737;SDS011;17906;47.684;10.806;2023-05-21T04:26:35;8.77;;;5.00;;
16737;SDS011;17906;47.684;10.806;2023-05-21T04:29:02;9.73;;;5.00;;
16737;SDS011;17906;47.684;10.806;2023-05-21T04:31:30;8.87;;;4.57;;
16737;SDS011;17906;47.684;10.806;2023-05-21T04:33:57;8.30;;;3.97;;
16737;SDS011;17906;47.684;10.806;2023-05-21T04:36:24;6.50;;;4.10;;
16737;SDS011;17906;47.684;10.806;2023-05-21T04:38:53;7.00;;;4.50;;
16737;SDS011;17906;47.684;10.806;2023-05-21T04:41:19;7.87;;;4.43;;
16737;SDS011;17906;47.684;10.806;2023-05-21T04:43:46;7.40;;;4.43;;
16737;SDS011;17906;47.684;10.806;2023-05-21T04:46:12;11.57;;;5.30;;
16737;SDS011;17906;47.684;10.806;2023-05-21T04:48:40;9.80;;;5.27;;
16737;SDS011;17906;47.684;10.806;2023-05-21T04:51:07;9.67;;;5.40;;
16737;SDS011;17906;47.684;10.806;2023-05-21T04:53:33;12.20;;;6.40;;
16737;SDS011;17906;47.684;10.806;2023-05-21T04:56:00;11.30;;;5.77;;
16737;SDS011;17906;47.684;10.806;2023-05-21T04:58:27;15.83;;;9.30;;
16737;SDS011;17906;47.684;10.806;2023-05-21T05:00:56;11.73;;;6.73;;
16737;SDS011;17906;47.684;10.806;2023-05-21T05:03:26;10.47;;;6.03;;
16737;SDS011;17906;47.684;10.806;2023-05-21T05:05:54;18.47;;;7.17;;
16737;SDS011;17906;47.684;10.806;2023-05-21T05:08:21;27.20;;;13.23;;
16737;SDS011;17906;47.684;10.806;2023-05-21T05:10:47;34.00;;;16.93;;
16737;SDS011;17906;47.684;10.806;2023-05-21T05:13:14;65.20;;;33.57;;
16737;SDS011;17906;47.684;10.806;2023-05-21T05:15:40;29.67;;;17.07;;
16737;SDS011;17906;47.684;10.806;2023-05-21T05:18:07;13.80;;;7.90;;
16737;SDS011;17906;47.684;10.806;2023-05-21T05:20:33;10.60;;;6.60;;
16737;SDS011;17906;47.684;10.806;2023-05-21T05:23:01;19.07;;;7.47;;
16737;SDS011;17906;47.684;10.806;2023-05-21T05:25:28;13.77;;;8.87;;
16737;SDS011;17906;47.684;10.806;2023-05-21T05:27:54;13.07;;;7.10;;
16737;SDS011;17906;47.684;10.806;2023-05-21T05:30:20;19.40;;;10.13;;
16737;SDS011;17906;47.684;10.806;2023-05-21T05:32:47;17.67;;;9.13;;
16737;SDS011;17906;47.684;10.806;2023-05-21T05:35:13;19.43;;;9.47;;
16737;SDS011;17906;47.684;10.806;2023-05-21T05:37:40;30.33;;;15.30;;
16737;SDS011;17906;47.684;10.806;2023-05-21T05:40:08;31.80;;;15.73;;
16737;SDS011;17906;47.684;10.806;2023-05-21T05:42:35;17.10;;;8.97;;
16737;SDS011;17906;47.684;10.806;2023-05-21T05:45:01;12.93;;;7.60;;
16737;SDS011;17906;47.684;10.806;2023-05-21T05:47:28;11.67;;;6.50;;
16737;SDS011;17906;47.684;10.806;2023-05-21T05:49:55;9.33;;;5.60;;
16737;SDS011;17906;47.684;10.806;2023-05-21T05:52:21;8.93;;;5.60;;
16737;SDS011;17906;47.684;10.806;2023-05-21T05:54:48;9.73;;;6.10;;
16737;SDS011;17906;47.684;10.806;2023-05-21T05:57:16;11.23;;;6.17;;
16737;SDS011;17906;47.684;10.806;2023-05-21T05:59:42;9.60;;;6.10;;
16737;SDS011;17906;47.684;10.806;2023-05-21T06:02:09;13.13;;;8.03;;
16737;SDS011;17906;47.684;10.806;2023-05-21T06:04:35;14.07;;;6.27;;
16737;SDS011;17906;47.684;10.806;2023-05-21T06:07:01;16.17;;;9.10;;
16737;SDS011;17906;47.684;10.806;2023-05-21T06:09:28;15.07;;;8.33;;
16737;SDS011;17906;47.684;10.806;2023-05-21T06:11:55;14.73;;;6.83;;
16737;SDS011;17906;47.684;10.806;2023-05-21T06:14:23;15.33;;;9.10;;
16737;SDS011;17906;47.684;10.806;2023-05-21T06:16:49;13.20;;;7.67;;
16737;SDS011;17906;47.684;10.806;2023-05-21T06:19:15;9.07;;;5.80;;
16737;SDS011;17906;47.684;10.806;2023-05-21T06:21:42;13.63;;;6.37;;
16737;SDS011;17906;47.684;10.806;2023-05-21T06:24:08;10.87;;;6.07;;
16737;SDS011;17906;47.684;10.806;2023-05-21T06:26:35;9.90;;;5.97;;
16737;SDS011;17906;47.684;10.806;2023-05-21T06:29:01;11.10;;;5.80;;
16737;SDS011;17906;47.684;10.806;2023-05-21T06:31:30;10.47;;;5.53;;
16737;SDS011;17906;47.684;10.806;2023-05-21T06:33:57;10.50;;;5.50;;
16737;SDS011;17906;47.684;10.806;2023-05-21T06:36:24;8.87;;;5.60;;
16737;SDS011;17906;47.684;10.806;2023-05-21T06:38:53;10.53;;;5.53;;
16737;SDS011;17906;47.684;10.806;2023-05-21T06:41:20;8.37;;;5.20;;
16737;SDS011;17906;47.684;10.806;2023-05-21T06:43:46;8.23;;;5.50;;
16737;SDS011;17906;47.684;10.806;2023-05-21T06:46:13;8.90;;;6.00;;
16737;SDS011;17906;47.684;10.806;2023-05-21T06:48:42;11.00;;;6.03;;
16737;SDS011;17906;47.684;10.806;2023-05-21T06:51:09;10.37;;;5.90;;
16737;SDS011;17906;47.684;10.806;2023-05-21T06:53:36;8.57;;;5.20;;
16737;SDS011;17906;47.684;10.806;2023-05-21T06:56:03;8.37;;;5.80;;
16737;SDS011;17906;47.684;10.806;2023-05-21T06:58:30;13.77;;;5.63;;
16737;SDS011;17906;47.684;10.806;2023-05-21T07:00:56;10.57;;;5.63;;
16737;SDS011;17906;47.684;10.806;2023-05-21T07:03:23;10.57;;;6.20;;
16737;SDS011;17906;47.684;10.806;2023-05-21T07:05:50;10.53;;;6.33;;
16737;SDS011;17906;47.684;10.806;2023-05-21T07:08:17;10.80;;;6.27;;
16737;SDS011;17906;47.684;10.806;2023-05-21T07:10:44;11.10;;;6.17;;
16737;SDS011;17906;47.684;10.806;2023-05-21T07:13:11;8.80;;;5.63;;
16737;SDS011;17906;47.684;10.806;2023-05-21T07:15:37;10.20;;;5.90;;
16737;SDS011;17906;47.684;10.806;2023-05-21T07:18:04;8.33;;;5.40;;
16737;SDS011;17906;47.684;10.806;2023-05-21T07:20:31;9.53;;;5.13;;
16737;SDS011;17906;47.684;10.806;2023-05-21T07:22:59;9.47;;;5.73;;
16737;SDS011;17906;47.684;10.806;2023-05-21T07:25:25;8.93;;;6.27;;
16737;SDS011;17906;47.684;10.806;2023-05-21T07:27:52;7.97;;;5.77;;
16737;SDS011;17906;47.684;10.806;2023-05-21T07:30:19;8.10;;;5.47;;
16737;SDS011;17906;47.684;10.806;2023-05-21T07:32:45;8.13;;;4.87;;
16737;SDS011;17906;47.684;10.806;2023-05-21T07:35:12;11.87;;;5.80;;
16737;SDS011;17906;47.684;10.806;2023-05-21T07:37:38;8.37;;;5.07;;
16737;SDS011;17906;47.684;10.806;2023-05-21T07:40:07;10.50;;;5.67;;
16737;SDS011;17906;47.684;10.806;2023-05-21T07:42:34;9.53;;;5.90;;
16737;SDS011;17906;47.684;10.806;2023-05-21T07:45:01;11.17;;;5.40;;
16737;SDS011;17906;47.684;10.806;2023-05-21T07:47:28;7.67;;;4.97;;
16737;SDS011;17906;47.684;10.806;2023-05-21T07:49:54;7.90;;;4.80;;
16737;SDS011;17906;47.684;10.806;2023-05-21T07:52:22;9.65;;;5.90;;
16737;SDS011;17906;47.684;10.806;2023-05-21T07:54:49;8.85;;;5.57;;
16737;SDS011;17906;47.684;10.806;2023-05-21T07:57:17;8.15;;;5.85;;
16737;SDS011;17906;47.684;10.806;2023-05-21T07:59:43;9.52;;;6.13;;
16737;SDS011;17906;47.684;10.806;2023-05-21T08:02:10;7.80;;;5.35;;
16737;SDS011;17906;47.684;10.806;2023-05-21T08:04:36;9.77;;;5.70;;
16737;SDS011;17906;47.684;10.806;2023-05-21T08:07:03;7.68;;;5.40;;
16737;SDS011;17906;47.684;10.806;2023-05-21T08:09:30;8.52;;;4.93;;
16737;SDS011;17906;47.684;10.806;2023-05-21T08:11:56;9.52;;;5.25;;
16737;SDS011;17906;47.684;10.806;2023-05-21T08:14:24;9.40;;;5.20;;
16737;SDS011;17906;47.684;10.806;2023-05-21T08:16:50;7.80;;;5.32;;
16737;SDS011;17906;47.684;10.806;2023-05-21T08:19:17;6.47;;;4.68;;
16737;SDS011;17906;47.684;10.806;2023-05-21T08:21:43;7.63;;;4.80;;
16737;SDS011;17906;47.684;10.806;2023-05-21T08:24:10;8.25;;;5.03;;
16737;SDS011;17906;47.684;10.806;2023-05-21T08:26:36;6.68;;;4.78;;
16737;SDS011;17906;47.684;10.806;2023-05-21T08:29:03;7.85;;;4.60;;
16737;SDS011;17906;47.684;10.806;2023-05-21T08:31:31;6.38;;;4.47;;
16737;SDS011;17906;47.684;10.806;2023-05-21T08:33:57;6.15;;;4.20;;
16737;SDS011;17906;47.684;10.806;2023-05-21T08:36:23;5.90;;;3.70;;
16737;SDS011;17906;47.684;10.806;2023-05-21T08:38:50;8.48;;;3.97;;
16737;SDS011;17906;47.684;10.806;2023-05-21T08:41:17;6.97;;;4.00;;
16737;SDS011;17906;47.684;10.806;2023-05-21T08:43:46;5.10;;;3.92;;
16737;SDS011;17906;47.684;10.806;2023-05-21T08:46:17;5.05;;;4.00;;
16737;SDS011;17906;47.684;10.806;2023-05-21T08:48:49;6.20;;;4.10;;
16737;SDS011;17906;47.684;10.806;2023-05-21T08:51:18;8.57;;;4.50;;
16737;SDS011;17906;47.684;10.806;2023-05-21T08:53:46;7.22;;;4.45;;
16737;SDS011;17906;47.684;10.806;2023-05-21T08:56:13;5.35;;;3.92;;
16737;SDS011;17906;47.684;10.806;2023-05-21T08:58:41;7.57;;;4.20;;
16737;SDS011;17906;47.684;10.806;2023-05-21T09:01:11;7.63;;;5.22;;
16737;SDS011;17906;47.684;10.806;2023-05-21T09:03:38;5.70;;;4.28;;
16737;SDS011;17906;47.684;10.806;2023-05-21T09:06:07;6.00;;;4.32;;
16737;SDS011;17906;47.684;10.806;2023-05-21T09:08:38;4.88;;;3.75;;
16737;SDS011;17906;47.684;10.806;2023-05-21T09:11:09;6.07;;;4.07;;
16737;SDS011;17906;47.684;10.806;2023-05-21T09:13:35;6.53;;;4.32;;
16737;SDS011;17906;47.684;10.806;2023-05-21T09:16:03;9.02;;;4.25;;
16737;SDS011;17906;47.684;10.806;2023-05-21T09:18:31;5.68;;;4.13;;
16737;SDS011;17906;47.684;10.806;2023-05-21T09:20:58;6.50;;;4.05;;
16737;SDS011;17906;47.684;10.806;2023-05-21T09:23:50;6.30;;;4.20;;
16737;SDS011;17906;47.684;10.806;2023-05-21T09:26:20;5.53;;;3.95;;
16737;SDS011;17906;47.684;10.806;2023-05-21T09:28:47;8.05;;;4.55;;
16737;SDS011;17906;47.684;10.806;2023-05-21T09:31:13;7.20;;;5.38;;
16737;SDS011;17906;47.684;10.806;2023-05-21T09:33:44;6.30;;;4.60;;
16737;SDS011;17906;47.684;10.806;2023-05-21T09:36:11;8.50;;;4.65;;
16737;SDS011;17906;47.684;10.806;2023-05-21T09:38:37;5.70;;;4.13;;
16737;SDS011;17906;47.684;10.806;2023-05-21T09:41:05;6.13;;;4.10;;
16737;SDS011;17906;47.684;10.806;2023-05-21T09:43:32;6.97;;;4.78;;
16737;SDS011;17906;47.684;10.806;2023-05-21T09:45:58;7.80;;;4.20;;
16737;SDS011;17906;47.684;10.806;2023-05-21T09:48:32;6.22;;;4.35;;
16737;SDS011;17906;47.684;10.806;2023-05-21T09:51:09;6.80;;;4.13;;
16737;SDS011;17906;47.684;10.806;2023-05-21T09:53:43;6.80;;;4.57;;
16737;SDS011;17906;47.684;10.806;2023-05-21T09:56:15;5.88;;;4.80;;
16737;SDS011;17906;47.684;10.806;2023-05-21T09:58:44;8.25;;;4.75;;
16737;SDS011;17906;47.684;10.806;2023-05-21T10:01:11;7.70;;;5.13;;
16737;SDS011;17906;47.684;10.806;2023-05-21T10:03:38;10.15;;;5.10;;
16737;SDS011;17906;47.684;10.806;2023-05-21T10:06:06;10.85;;;6.00;;
16737;SDS011;17906;47.684;10.806;2023-05-21T10:08:34;6.65;;;5.10;;
16737;SDS011;17906;47.684;10.806;2023-05-21T10:11:03;5.88;;;4.72;;
16737;SDS011;17906;47.684;10.806;2023-05-21T10:13:32;6.72;;;4.85;;
16737;SDS011;17906;47.684;10.806;2023-05-21T10:16:03;5.57;;;4.45;;
16737;SDS011;17906;47.684;10.806;2023-05-21T10:18:31;7.60;;;4.60;;
16737;SDS011;17906;47.684;10.806;2023-05-21T10:20:59;6.60;;;4.80;;
16737;SDS011;17906;47.684;10.806;2023-05-21T10:23:26;6.53;;;5.10;;
16737;SDS011;17906;47.684;10.806;2023-05-21T10:25:54;7.43;;;4.88;;
16737;SDS011;17906;47.684;10.806;2023-05-21T10:28:21;8.02;;;5.07;;
16737;SDS011;17906;47.684;10.806;2023-05-21T10:30:50;7.13;;;4.88;;
16737;SDS011;17906;47.684;10.806;2023-05-21T10:33:17;11.40;;;7.25;;
16737;SDS011;17906;47.684;10.806;2023-05-21T10:35:45;8.50;;;5.78;;
16737;SDS011;17906;47.684;10.806;2023-05-21T10:38:12;15.57;;;8.25;;
16737;SDS011;17906;47.684;10.806;2023-05-21T10:40:39;8.73;;;6.10;;
16737;SDS011;17906;47.684;10.806;2023-05-21T10:43:12;9.57;;;6.88;;
16737;SDS011;17906;47.684;10.806;2023-05-21T10:46:07;11.48;;;7.07;;
16737;SDS011;17906;47.684;10.806;2023-05-21T10:48:47;8.00;;;5.13;;
16737;SDS011;17906;47.684;10.806;2023-05-21T10:51:24;7.15;;;5.45;;
16737;SDS011;17906;47.684;10.806;2023-05-21T10:54:03;6.35;;;5.00;;
16737;SDS011;17906;47.684;10.806;2023-05-21T10:56:43;7.13;;;4.97;;
16737;SDS011;17906;47.684;10.806;2023-05-21T10:59:15;10.15;;;6.28;;
16737;SDS011;17906;47.684;10.806;2023-05-21T11:01:52;6.53;;;5.10;;
16737;SDS011;17906;47.684;10.806;2023-05-21T11:04:21;9.57;;;4.70;;
16737;SDS011;17906;47.684;10.806;2023-05-21T11:06:48;5.88;;;4.88;;
16737;SDS011;17906;47.684;10.806;2023-05-21T11:09:14;7.30;;;5.80;;
16737;SDS011;17906;47.684;10.806;2023-05-21T11:11:42;8.90;;;5.32;;
16737;SDS011;17906;47.684;10.806;2023-05-21T11:17:08;6.15;;;5.22;;
16737;SDS011;17906;47.684;10.806;2023-05-21T11:19:37;7.00;;;5.35;;
16737;SDS011;17906;47.684;10.806;2023-05-21T11:22:05;8.02;;;5.03;;
16737;SDS011;17906;47.684;10.806;2023-05-21T11:24:35;9.73;;;6.80;;
16737;SDS011;17906;47.684;10.806;2023-05-21T11:27:04;8.45;;;5.70;;
16737;SDS011;17906;47.684;10.806;2023-05-21T11:29:40;10.73;;;6.45;;
16737;SDS011;17906;47.684;10.806;2023-05-21T11:32:10;10.35;;;5.70;;
16737;SDS011;17906;47.684;10.806;2023-05-21T11:34:38;14.73;;;10.57;;
16737;SDS011;17906;47.684;10.806;2023-05-21T11:37:22;8.75;;;6.47;;
16737;SDS011;17906;47.684;10.806;2023-05-21T11:39:51;9.05;;;7.25;;
16737;SDS011;17906;47.684;10.806;2023-05-21T11:42:31;12.05;;;6.85;;
16737;SDS011;17906;47.684;10.806;2023-05-21T11:44:59;18.20;;;15.30;;
16737;SDS011;17906;47.684;10.806;2023-05-21T11:47:28;15.95;;;13.15;;
16737;SDS011;17906;47.684;10.806;2023-05-21T11:49:57;7.05;;;5.82;;
16737;SDS011;17906;47.684;10.806;2023-05-21T11:52:24;9.70;;;6.57;;
16737;SDS011;17906;47.684;10.806;2023-05-21T11:54:53;9.15;;;6.25;;
16737;SDS011;17906;47.684;10.806;2023-05-21T11:57:21;8.93;;;6.88;;
16737;SDS011;17906;47.684;10.806;2023-05-21T11:59:55;10.15;;;6.50;;
16737;SDS011;17906;47.684;10.806;2023-05-21T12:02:24;9.32;;;6.30;;
16737;SDS011;17906;47.684;10.806;2023-05-21T12:04:52;9.55;;;5.88;;
16737;SDS011;17906;47.684;10.806;2023-05-21T12:07:24;7.53;;;5.70;;
16737;SDS011;17906;47.684;10.806;2023-05-21T12:09:52;9.50;;;6.25;;
16737;SDS011;17906;47.684;10.806;2023-05-21T12:12:20;8.48;;;5.97;;
16737;SDS011;17906;47.684;10.806;2023-05-21T12:14:48;7.38;;;5.95;;
16737;SDS011;17906;47.684;10.806;2023-05-21T12:17:16;8.85;;;6.10;;
16737;SDS011;17906;47.684;10.806;2023-05-21T12:19:44;8.55;;;6.32;;
16737;SDS011;17906;47.684;10.806;2023-05-21T12:22:12;11.27;;;6.18;;
16737;SDS011;17906;47.684;10.806;2023-05-21T12:24:40;8.85;;;5.85;;
16737;SDS011;17906;47.684;10.806;2023-05-21T12:27:09;7.55;;;6.10;;
16737;SDS011;17906;47.684;10.806;2023-05-21T12:29:37;9.35;;;5.85;;
16737;SDS011;17906;47.684;10.806;2023-05-21T12:32:07;8.90;;;6.10;;
16737;SDS011;17906;47.684;10.806;2023-05-21T12:34:37;8.80;;;6.18;;
16737;SDS011;17906;47.684;10.806;2023-05-21T12:37:05;8.43;;;6.05;;
16737;SDS011;17906;47.684;10.806;2023-05-21T12:39:37;9.32;;;6.60;;
16737;SDS011;17906;47.684;10.806;2023-05-21T12:42:05;9.68;;;6.03;;
16737;SDS011;17906;47.684;10.806;2023-05-21T12:44:31;6.72;;;5.72;;
16737;SDS011;17906;47.684;10.806;2023-05-21T12:46:58;10.50;;;5.78;;
16737;SDS011;17906;47.684;10.806;2023-05-21T12:49:34;8.40;;;5.40;;
16737;SDS011;17906;47.684;10.806;2023-05-21T12:52:07;8.70;;;5.60;;
16737;SDS011;17906;47.684;10.806;2023-05-21T12:54:35;7.95;;;5.72;;
16737;SDS011;17906;47.684;10.806;2023-05-21T12:57:13;10.32;;;6.05;;
16737;SDS011;17906;47.684;10.806;2023-05-21T12:59:44;8.13;;;5.90;;
16737;SDS011;17906;47.684;10.806;2023-05-21T13:02:13;10.80;;;6.45;;
16737;SDS011;17906;47.684;10.806;2023-05-21T13:04:40;8.02;;;5.57;;
16737;SDS011;17906;47.684;10.806;2023-05-21T13:07:07;7.25;;;5.50;;
16737;SDS011;17906;47.684;10.806;2023-05-21T13:09:33;9.75;;;5.70;;
16737;SDS011;17906;47.684;10.806;2023-05-21T13:12:00;9.25;;;6.07;;
16737;SDS011;17906;47.684;10.806;2023-05-21T13:14:28;9.55;;;6.13;;
16737;SDS011;17906;47.684;10.806;2023-05-21T13:16:54;10.38;;;6.13;;
16737;SDS011;17906;47.684;10.806;2023-05-21T13:19:21;11.63;;;6.45;;
16737;SDS011;17906;47.684;10.806;2023-05-21T13:21:47;8.68;;;6.13;;
16737;SDS011;17906;47.684;10.806;2023-05-21T13:24:14;7.30;;;5.45;;
16737;SDS011;17906;47.684;10.806;2023-05-21T13:26:40;6.82;;;5.68;;
16737;SDS011;17906;47.684;10.806;2023-05-21T13:29:07;7.90;;;5.55;;
16737;SDS011;17906;47.684;10.806;2023-05-21T13:31:35;8.45;;;5.82;;
16737;SDS011;17906;47.684;10.806;2023-05-21T13:34:01;8.07;;;5.55;;
16737;SDS011;17906;47.684;10.806;2023-05-21T13:36:28;8.30;;;5.50;;
16737;SDS011;17906;47.684;10.806;2023-05-21T13:38:55;6.47;;;5.43;;
16737;SDS011;17906;47.684;10.806;2023-05-21T13:41:21;8.40;;;5.63;;
16737;SDS011;17906;47.684;10.806;2023-05-21T13:43:48;9.40;;;5.75;;
16737;SDS011;17906;47.684;10.806;2023-05-21T13:46:14;7.10;;;5.40;;
16737;SDS011;17906;47.684;10.806;2023-05-21T13:48:42;10.23;;;5.97;;
16737;SDS011;17906;47.684;10.806;2023-05-21T13:51:09;7.82;;;5.45;;
16737;SDS011;17906;47.684;10.806;2023-05-21T13:53:36;7.05;;;5.65;;
16737;SDS011;17906;47.684;10.806;2023-05-21T13:56:02;10.75;;;5.90;;
16737;SDS011;17906;47.684;10.806;2023-05-21T13:58:30;7.88;;;5.78;;
16737;SDS011;17906;47.684;10.806;2023-05-21T14:00:58;7.43;;;5.80;;
16737;SDS011;17906;47.684;10.806;2023-05-21T14:03:25;10.73;;;6.20;;
16737;SDS011;17906;47.684;10.806;2023-05-21T14:05:53;7.88;;;5.70;;
16737;SDS011;17906;47.684;10.806;2023-05-21T14:08:20;7.63;;;5.95;;
16737;SDS011;17906;47.684;10.806;2023-05-21T14:10:47;9.57;;;5.93;;
16737;SDS011;17906;47.684;10.806;2023-05-21T14:13:14;9.35;;;5.97;;
16737;SDS011;17906;47.684;10.806;2023-05-21T14:15:41;8.50;;;5.68;;
16737;SDS011;17906;47.684;10.806;2023-05-21T14:18:07;8.20;;;6.18;;
16737;SDS011;17906;47.684;10.806;2023-05-21T14:20:36;10.30;;;5.80;;
16737;SDS011;17906;47.684;10.806;2023-05-21T14:23:04;7.35;;;5.57;;
16737;SDS011;17906;47.684;10.806;2023-05-21T14:25:30;8.18;;;6.10;;
16737;SDS011;17906;47.684;10.806;2023-05-21T14:27:57;7.63;;;5.22;;
16737;SDS011;17906;47.684;10.806;2023-05-21T14:30:23;10.32;;;5.93;;
16737;SDS011;17906;47.684;10.806;2023-05-21T14:32:50;8.98;;;6.25;;
16737;SDS011;17906;47.684;10.806;2023-05-21T14:35:16;8.05;;;5.57;;
16737;SDS011;17906;47.684;10.806;2023-05-21T14:37:43;8.40;;;6.20;;